Time;durP1;ratioP1;P1;durP2;ratioP2;P2;SDS_P1;SDS_P2;PMS_P1;PMS_P2;Temp;Humidity;BMP_temperature;BMP_pressure;BME280_temperature;BME280_humidity;BME280_pressure;Samples;Min_cycle;Max_cycle;Signal;HPM_P1;HPM_P2
2023/09/13 00:00:09;;;;;;;2.00;1.90;;;22.80;99.90;;;23.25;91.30;101230.41;5044329;28;20037;-70
2023/09/13 00:02:41;;;;;;;2.10;2.00;;;22.90;99.90;;;23.37;90.91;101237.94;5035628;28;20053;-70
2023/09/13 00:05:10;;;;;;;1.92;1.83;;;23.00;99.90;;;23.40;90.28;101242.31;5046470;28;20049;-70
2023/09/13 00:07:40;;;;;;;1.60;1.60;;;23.00;99.90;;;23.47;89.99;101243.72;5040686;28;20441;-69
2023/09/13 00:10:09;;;;;;;1.77;1.77;;;23.10;99.90;;;23.50;89.73;101243.59;5051786;28;20052;-70
2023/09/13 00:12:38;;;;;;;2.08;1.98;;;23.10;99.90;;;23.51;89.96;101240.81;5035392;28;20099;-69
2023/09/13 00:15:07;;;;;;;2.03;1.92;;;23.10;99.90;;;23.50;89.78;101230.94;5045398;28;20036;-69
2023/09/13 00:17:36;;;;;;;1.95;1.85;;;23.20;99.90;;;23.43;89.66;101234.03;5042544;28;20049;-69
2023/09/13 00:20:07;;;;;;;2.00;1.90;;;23.10;99.90;;;23.33;90.48;101238.16;5037707;28;20127;-69
2023/09/13 00:22:36;;;;;;;1.67;1.67;;;23.00;99.90;;;23.38;90.54;101238.81;5047928;28;20436;-70
2023/09/13 00:25:06;;;;;;;2.20;2.10;;;23.00;99.90;;;23.35;89.65;101230.84;5039149;28;20124;-69
2023/09/13 00:27:34;;;;;;;1.70;1.70;;;22.90;99.90;;;23.33;89.70;101230.94;5040433;28;20440;-70
2023/09/13 00:30:06;;;;;;;2.20;2.10;;;23.00;99.90;;;23.24;89.63;101207.09;5046586;28;20049;-69
2023/09/13 00:32:35;;;;;;;2.05;1.95;;;23.00;99.90;;;23.37;89.51;101232.53;5036230;28;20053;-69
2023/09/13 00:35:03;;;;;;;2.10;2.00;;;23.00;99.90;;;23.31;89.35;101230.16;5043930;28;20046;-69
2023/09/13 00:37:32;;;;;;;1.60;1.60;;;23.00;99.90;;;23.29;89.63;101229.31;5044070;28;20478;-69
2023/09/13 00:40:00;;;;;;;1.80;1.75;;;22.90;99.90;;;23.25;89.63;101227.72;5035763;28;20090;-69
2023/09/13 00:42:31;;;;;;;1.92;1.83;;;22.90;99.90;;;23.29;89.82;101232.00;5047522;28;20049;-69
2023/09/13 00:44:59;;;;;;;2.00;1.90;;;22.90;99.90;;;23.30;89.94;101228.38;5040982;28;20155;-70
2023/09/13 00:47:27;;;;;;;2.00;1.90;;;22.90;99.90;;;23.32;89.71;101242.72;5047322;28;20095;-69
2023/09/13 00:49:56;;;;;;;2.33;2.22;;;23.00;99.90;;;23.32;89.59;101239.13;5048507;28;20051;-69
2023/09/13 00:52:27;;;;;;;1.98;1.88;;;23.00;99.90;;;23.19;90.10;101241.53;5037508;28;20052;-69
2023/09/13 00:54:56;;;;;;;2.20;2.10;;;22.90;99.90;;;23.11;90.52;101241.06;5042240;28;20038;-69
2023/09/13 00:57:24;;;;;;;1.90;1.80;;;22.70;99.90;;;23.06;91.47;101237.69;5044501;28;20064;-69
2023/09/13 00:59:54;;;;;;;2.47;2.38;;;22.70;99.90;;;23.07;91.50;101229.53;5049576;28;20126;-70
2023/09/13 01:02:22;;;;;;;2.00;1.90;;;22.70;99.90;;;23.10;90.75;101226.69;5037117;28;20079;-70
2023/09/13 01:04:51;;;;;;;2.08;1.98;;;22.70;99.90;;;22.96;91.38;101231.00;5041106;28;20046;-70
2023/09/13 01:07:20;;;;;;;2.03;1.92;;;22.60;99.90;;;22.88;92.56;101225.13;5045876;28;20037;-69
2023/09/13 01:09:48;;;;;;;2.03;1.92;;;22.50;99.90;;;22.89;92.89;101218.78;5035062;28;20415;-69
2023/09/13 01:12:17;;;;;;;1.75;1.73;;;22.50;99.90;;;22.80;93.47;101195.81;5044798;28;20057;-69
2023/09/13 01:14:45;;;;;;;1.98;1.88;;;22.50;99.90;;;22.99;92.90;101206.59;5042478;28;20053;-70
2023/09/13 01:17:22;;;;;;;2.10;2.00;;;22.50;99.90;;;23.03;91.64;101197.38;5036944;28;20079;-69
2023/09/13 01:20:09;;;;;;;2.30;2.20;;;22.60;99.90;;;22.97;90.98;101203.09;5035000;28;20410;-70
2023/09/13 01:23:20;;;;;;;1.90;1.80;;;22.60;99.90;;;22.94;91.29;101195.13;5041322;28;20069;-69
2023/09/13 01:26:00;;;;;;;;;;;22.60;99.90;;;22.94;91.37;101196.00;5051076;28;20133;-69
2023/09/13 01:28:37;;;;;;;2.00;1.90;;;22.60;99.90;;;22.90;91.27;101210.59;5060792;28;20255;-69
2023/09/13 01:31:08;;;;;;;1.75;1.73;;;22.60;99.90;;;22.93;91.21;101214.97;5050638;28;20076;-69
2023/09/13 01:33:38;;;;;;;2.10;2.00;;;22.60;99.90;;;22.97;91.13;101219.28;5034567;28;20051;-69
2023/09/13 01:36:07;;;;;;;2.10;2.00;;;22.60;99.90;;;22.91;90.90;101212.38;5043260;28;20190;-70
2023/09/13 01:38:35;;;;;;;1.98;1.88;;;22.60;99.90;;;22.93;90.89;101210.47;5042806;28;20424;-69
2023/09/13 01:41:21;;;;;;;2.10;2.00;;;22.60;99.90;;;22.93;90.99;101206.88;5051198;28;20072;-69
2023/09/13 01:43:53;;;;;;;2.10;2.00;;;22.60;99.90;;;22.89;91.14;101200.78;5041561;28;20060;-69
2023/09/13 01:46:33;;;;;;;2.50;2.40;;;22.60;99.90;;;22.81;90.97;101194.00;5043956;28;20080;-69
2023/09/13 01:49:03;;;;;;;1.90;1.80;;;22.60;99.90;;;22.91;90.93;101212.38;5051211;28;20132;-69
2023/09/13 01:51:33;;;;;;;2.20;2.10;;;22.60;99.90;;;22.93;90.87;101220.38;5038922;28;20045;-69
2023/09/13 01:54:02;;;;;;;2.05;1.95;;;22.60;99.90;;;22.89;90.80;101214.25;5070445;28;20436;-69
2023/09/13 01:56:30;;;;;;;2.33;2.22;;;22.60;99.90;;;22.88;91.07;101220.59;5041595;28;20052;-70
2023/09/13 01:59:00;;;;;;;2.20;2.10;;;22.60;99.90;;;22.87;90.89;101217.97;5051410;28;20099;-69
2023/09/13 02:01:29;;;;;;;2.22;2.13;;;22.60;99.90;;;22.87;90.64;101215.28;5048548;28;20470;-69
2023/09/13 02:03:58;;;;;;;1.98;1.88;;;22.60;99.90;;;22.89;90.73;101208.00;5044400;28;20072;-70
2023/09/13 02:06:26;;;;;;;3.75;3.22;;;22.60;99.90;;;22.83;90.66;101213.69;5040324;28;20057;-70
2023/09/13 02:08:55;;;;;;;1.92;1.83;;;22.50;99.90;;;22.74;91.62;101206.94;5051908;28;20123;-70
2023/09/13 02:11:24;;;;;;;2.10;2.00;;;22.40;99.90;;;22.74;91.71;101214.16;5048053;28;20125;-69
2023/09/13 02:13:53;;;;;;;2.25;2.15;;;22.40;99.90;;;22.76;91.05;101215.81;5045070;28;20045;-69
2023/09/13 02:16:23;;;;;;;2.08;1.98;;;22.40;99.90;;;22.73;91.33;101223.16;5039701;28;20092;-69
2023/09/13 02:18:52;;;;;;;2.15;2.05;;;22.40;99.90;;;22.79;90.73;101221.06;5050669;28;20107;-69
2023/09/13 02:21:20;;;;;;;1.80;1.80;;;22.40;99.90;;;22.72;90.83;101226.84;5041776;28;20085;-69
2023/09/13 02:23:48;;;;;;;2.13;2.03;;;22.30;99.90;;;22.64;91.59;101229.03;5049900;28;20091;-69
2023/09/13 02:26:21;;;;;;;2.00;1.90;;;22.20;99.90;;;22.61;92.06;101224.63;5049683;28;20045;-69
2023/09/13 02:28:51;;;;;;;1.90;1.80;;;22.20;99.90;;;22.71;91.54;101231.34;5050545;28;20075;-70
2023/09/13 02:31:27;;;;;;;1.90;1.80;;;22.30;99.90;;;22.75;90.97;101223.97;5041521;28;20060;-69
2023/09/13 02:33:56;;;;;;;2.22;2.13;;;22.40;99.90;;;22.78;90.66;101231.94;5054269;28;20045;-70
2023/09/13 02:36:24;;;;;;;2.10;2.00;;;22.40;99.90;;;22.80;90.70;101230.03;5050227;28;20538;-70
2023/09/13 02:38:54;;;;;;;2.00;1.90;;;22.50;99.90;;;22.82;90.44;101233.53;5049524;28;20048;-69
2023/09/13 02:41:22;;;;;;;2.40;2.30;;;22.50;99.90;;;22.81;90.13;101226.38;5043483;28;20041;-70
2023/09/13 02:43:50;;;;;;;2.08;1.98;;;22.50;99.90;;;22.75;90.18;101232.94;5049404;28;20475;-70
2023/09/13 02:46:19;;;;;;;2.40;2.30;;;22.40;99.90;;;22.70;89.72;101228.72;5048976;28;20077;-69
2023/09/13 02:48:48;;;;;;;2.35;2.25;;;22.40;99.90;;;22.72;89.54;101240.31;5039479;28;20049;-70
2023/09/13 02:51:17;;;;;;;2.30;2.20;;;22.40;99.90;;;22.71;89.04;101233.16;5049239;28;20064;-70
2023/09/13 02:53:45;;;;;;;2.13;2.03;;;22.30;99.90;;;22.69;89.46;101235.06;5063378;28;20863;-70
2023/09/13 02:56:14;;;;;;;2.30;2.20;;;22.30;99.90;;;22.70;89.32;101235.00;5051558;28;20144;-69
2023/09/13 02:58:43;;;;;;;2.17;2.08;;;22.40;99.90;;;22.61;89.75;101237.28;5049186;28;20041;-70
2023/09/13 03:01:12;;;;;;;2.20;2.10;;;22.30;99.90;;;22.44;90.13;101214.66;5043050;28;20063;-69
2023/09/13 03:03:43;;;;;;;2.28;2.17;;;22.20;99.90;;;22.59;90.26;101231.94;5048592;28;20617;-70
2023/09/13 03:06:15;;;;;;;2.80;2.70;;;22.20;99.90;;;21.92;89.47;101125.53;5049554;28;20053;-70
2023/09/13 03:08:45;;;;;;;1.80;1.80;;;22.20;99.90;;;22.50;89.87;101237.75;5056965;28;20469;-70
2023/09/13 03:11:16;;;;;;;2.38;2.28;;;22.10;99.90;;;22.53;89.86;101231.34;5051661;28;20190;-70
2023/09/13 03:13:45;;;;;;;2.15;2.05;;;22.20;99.90;;;22.59;89.67;101237.31;5051613;28;20051;-70
2023/09/13 03:16:17;;;;;;;2.15;2.05;;;22.20;99.90;;;22.55;89.62;101229.44;5048117;28;20055;-70
2023/09/13 03:18:46;;;;;;;2.10;2.00;;;22.20;99.90;;;22.58;89.74;101234.72;5040688;28;20057;-70
2023/09/13 03:21:18;;;;;;;2.08;1.98;;;22.20;99.90;;;22.59;89.95;101236.47;5048353;28;20403;-70
2023/09/13 03:23:49;;;;;;;2.50;2.40;;;22.20;99.90;;;22.46;90.18;101241.53;5047852;28;20076;-70
2023/09/13 03:26:21;;;;;;;2.03;1.92;;;22.10;99.90;;;22.18;89.37;101241.09;5055075;28;20049;-69
2023/09/13 03:28:51;;;;;;;;;;;21.90;99.90;;;22.07;89.06;101238.88;5068954;28;20049;-70
2023/09/13 03:31:21;;;;;;;;;;;21.70;99.90;;;22.00;89.15;101223.06;5036575;28;19928;-70
2023/09/13 03:33:51;;;;;;;2.30;2.20;;;21.80;99.90;;;22.22;89.52;101238.16;5051346;28;19975;-69
2023/09/13 03:36:21;;;;;;;;;;;21.80;99.90;;;22.20;89.66;101245.44;5048538;28;20061;-70
2023/09/13 03:38:53;;;;;;;2.35;2.25;;;21.90;99.90;;;22.16;89.42;101243.81;5045389;28;20407;-70
2023/09/13 03:41:25;;;;;;;2.13;2.03;;;21.80;99.90;;;22.09;90.53;101247.75;5067454;28;20078;-70
2023/09/13 03:43:54;;;;;;;2.28;2.17;;;21.70;99.90;;;22.07;90.71;101243.38;5036538;28;20068;-70
2023/09/13 03:46:23;;;;;;;2.17;2.08;;;21.70;99.90;;;21.99;91.93;101249.13;5068177;28;20144;-69
2023/09/13 03:48:56;;;;;;;2.40;2.30;;;21.60;99.90;;;21.86;93.00;101247.91;5053822;28;20132;-71
2023/09/13 03:51:26;;;;;;;2.10;2.00;;;21.50;99.90;;;21.84;93.35;101246.22;5064285;28;20041;-69
2023/09/13 03:53:54;;;;;;;2.50;2.40;;;21.40;99.90;;;21.86;94.43;101245.22;5037825;28;20059;-69
2023/09/13 03:56:23;;;;;;;2.40;2.30;;;21.40;99.90;;;21.85;94.67;101238.09;5052569;28;20420;-69
2023/09/13 03:58:51;;;;;;;3.65;3.45;;;21.40;99.90;;;21.82;95.14;101240.91;5037782;28;20087;-70
2023/09/13 04:01:20;;;;;;;2.45;2.35;;;21.40;99.90;;;21.83;95.26;101245.38;5050328;28;20073;-69
2023/09/13 04:03:49;;;;;;;2.97;2.85;;;21.40;99.90;;;21.87;94.40;101252.38;5044310;28;20041;-69
2023/09/13 04:06:18;;;;;;;2.40;2.30;;;21.50;99.90;;;21.86;94.61;101257.81;5042265;28;20053;-70
2023/09/13 04:08:48;;;;;;;2.53;2.42;;;21.50;99.90;;;21.69;95.98;101239.69;5052472;28;20487;-69
2023/09/13 04:11:16;;;;;;;2.47;2.37;;;21.30;99.90;;;21.67;95.97;101244.25;5051235;28;20044;-70
2023/09/13 04:13:45;;;;;;;5.93;3.15;;;21.30;99.90;;;21.52;96.79;101245.78;5044449;28;20103;-71
2023/09/13 04:16:16;;;;;;;3.85;3.63;;;21.20;99.90;;;21.46;97.82;101239.81;5042176;28;20056;-70
2023/09/13 04:18:45;;;;;;;2.40;2.30;;;21.10;99.90;;;21.58;97.01;101247.38;5066904;28;20176;-69
2023/09/13 04:21:14;;;;;;;2.42;2.33;;;21.20;99.90;;;21.43;98.09;101246.19;5035020;28;20055;-70
2023/09/13 04:23:43;;;;;;;3.60;3.28;;;21.10;99.90;;;21.58;97.72;101251.88;5052015;28;20041;-69
2023/09/13 04:26:19;;;;;;;2.40;2.30;;;21.10;99.90;;;21.66;97.20;101250.56;5039360;28;20064;-69
2023/09/13 04:28:48;;;;;;;2.13;2.03;;;21.20;99.90;;;21.75;97.09;101260.97;5048907;28;20056;-70
2023/09/13 04:31:16;;;;;;;2.80;2.70;;;21.30;99.90;;;21.74;96.96;101253.81;5046706;28;20483;-70
2023/09/13 04:33:50;;;;;;;2.42;2.33;;;21.40;99.90;;;21.74;97.14;101253.81;5040524;28;20148;-70
2023/09/13 04:36:21;;;;;;;3.08;2.97;;;21.40;99.90;;;21.86;96.79;101253.31;5067684;28;20143;-70
2023/09/13 04:38:50;;;;;;;27.45;5.45;;;21.50;99.90;;;21.74;97.45;101269.97;5050415;28;20141;-70
2023/09/13 04:41:20;;;;;;;2.63;2.53;;;21.40;99.90;;;21.80;97.81;101266.13;5047700;28;20045;-70
2023/09/13 04:43:48;;;;;;;2.30;2.20;;;21.50;99.90;;;21.74;95.78;101278.06;5043964;28;20140;-70
2023/09/13 04:46:20;;;;;;;2.53;2.42;;;21.50;99.90;;;21.69;94.51;101282.78;5051445;28;20350;-70
2023/09/13 04:48:48;;;;;;;2.40;2.30;;;21.40;99.90;;;21.74;93.48;101278.06;5034992;28;20069;-69
2023/09/13 04:51:17;;;;;;;3.42;2.30;;;21.50;99.90;;;21.53;92.12;101284.38;5047514;28;20045;-70
2023/09/13 04:53:45;;;;;;;3.17;2.60;;;21.30;99.90;;;21.38;91.35;101290.41;5043821;28;20441;-70
2023/09/13 04:56:14;;;;;;;2.60;2.50;;;21.20;99.90;;;21.38;90.83;101291.28;5047854;28;20038;-69
2023/09/13 04:58:47;;;;;;;2.67;2.58;;;21.10;99.90;;;21.30;90.54;101304.19;5047761;28;20045;-70
2023/09/13 05:01:16;;;;;;;2.60;2.50;;;21.10;99.90;;;21.23;90.09;101296.44;5060585;28;20048;-69
2023/09/13 05:03:46;;;;;;;2.90;2.70;;;21.00;99.90;;;21.04;89.41;101292.75;5051604;28;20431;-69
2023/09/13 05:06:16;;;;;;;2.35;2.25;;;20.90;99.90;;;21.09;88.63;101315.84;5052040;28;20052;-69
2023/09/13 05:08:45;;;;;;;4.10;3.67;;;20.90;99.90;;;21.08;88.21;101314.06;5040513;28;20152;-70
2023/09/13 05:11:13;;;;;;;2.50;2.40;;;20.90;99.90;;;21.08;88.00;101314.06;5055967;28;20390;-70
2023/09/13 05:13:41;;;;;;;2.53;2.42;;;20.90;99.90;;;20.83;88.03;101324.03;5041193;28;20069;-70
2023/09/13 05:16:12;;;;;;;3.10;2.80;;;20.70;99.90;;;20.85;87.74;101324.00;5051274;28;20064;-70
2023/09/13 05:18:41;;;;;;;;;;;20.70;99.90;;;20.69;87.82;101326.41;5041925;28;20084;-70
2023/09/13 05:21:09;;;;;;;4.60;3.28;;;20.60;99.90;;;20.63;87.01;101318.56;5044182;28;20023;-69
2023/09/13 05:23:38;;;;;;;11.85;2.83;;;20.50;99.90;;;20.57;87.30;101332.22;5049945;28;20375;-70
2023/09/13 05:26:06;;;;;;;2.58;2.47;;;20.40;99.90;;;20.55;86.73;101332.31;5038864;28;20394;-70
2023/09/13 05:28:35;;;;;;;3.13;2.92;;;20.40;99.90;;;20.44;85.92;101322.88;5048158;28;20099;-69
2023/09/13 05:31:04;;;;;;;3.08;2.58;;;20.30;99.90;;;20.09;85.01;101297.25;5046706;28;20045;-70
2023/09/13 05:33:34;;;;;;;2.75;2.65;;;20.20;99.90;;;20.36;84.82;101336.59;5039620;28;20119;-70
2023/09/13 05:36:07;;;;;;;2.75;2.65;;;20.20;99.90;;;20.21;84.93;101350.59;5066987;28;20049;-70
2023/09/13 05:38:36;;;;;;;2.40;2.30;;;20.10;99.90;;;20.19;85.39;101359.66;5035020;28;20057;-70
2023/09/13 05:41:07;;;;;;;3.75;3.40;;;20.00;99.90;;;20.03;85.27;101351.25;5047156;28;20102;-69
2023/09/13 05:43:35;;;;;;;2.50;2.40;;;19.90;99.90;;;20.04;85.41;101363.72;5038598;28;20049;-70
2023/09/13 05:46:05;;;;;;;2.67;2.58;;;19.90;99.90;;;20.13;84.97;101389.41;5050371;28;20045;-70
2023/09/13 05:48:36;;;;;;;2.40;2.30;;;19.90;99.90;;;20.14;84.74;101389.34;5043786;28;20029;-70
2023/09/13 05:51:05;;;;;;;2.40;2.30;;;19.90;99.90;;;20.02;84.44;101362.91;5040982;28;20471;-70
2023/09/13 05:53:33;;;;;;;2.63;2.53;;;20.00;99.90;;;20.08;84.24;101392.22;5051441;28;20573;-70
2023/09/13 05:56:04;;;;;;;2.90;2.80;;;19.90;99.90;;;20.15;83.32;101412.56;5047341;28;20045;-70
2023/09/13 05:58:32;;;;;;;2.60;2.50;;;19.90;99.90;;;20.14;83.75;101423.38;5045010;28;20049;-70
2023/09/13 06:01:01;;;;;;;2.40;2.30;;;19.90;99.90;;;20.21;83.08;101427.66;5040320;28;20120;-69
2023/09/13 06:03:30;;;;;;;2.42;2.33;;;20.00;99.90;;;20.32;82.28;101434.41;5050992;28;20060;-70
2023/09/13 06:06:00;;;;;;;3.67;3.47;;;20.10;99.90;;;20.42;81.63;101440.31;5041640;28;20048;-69
2023/09/13 06:08:28;;;;;;;2.80;2.70;;;20.20;99.90;;;20.38;80.70;101436.00;5043714;28;20057;-70
2023/09/13 06:10:57;;;;;;;2.53;2.42;;;20.20;99.90;;;20.49;79.91;101448.13;5048685;28;20052;-70
2023/09/13 06:13:25;;;;;;;2.60;2.50;;;20.20;99.90;;;20.44;78.82;101450.06;5037950;28;20178;-70
2023/09/13 06:15:54;;;;;;;2.55;2.45;;;20.20;99.90;;;20.40;78.57;101442.19;5047463;28;20057;-70
2023/09/13 06:18:23;;;;;;;2.45;2.35;;;20.20;99.90;;;20.34;77.73;101461.22;5045090;28;20528;-70
2023/09/13 06:20:54;;;;;;;2.43;2.33;;;20.20;99.90;;;20.39;77.94;101467.28;5038235;28;20088;-69
2023/09/13 06:23:37;;;;;;;;;;;20.20;99.90;;;20.54;77.74;101469.44;5037565;28;20053;-69
2023/09/13 06:26:07;;;;;;;2.28;2.17;;;20.30;99.90;;;20.88;77.47;101487.94;5043617;28;19928;-69
2023/09/13 06:28:35;;;;;;;2.63;2.53;;;20.60;99.90;;;21.12;75.51;101495.97;5048151;28;20047;-69
2023/09/13 06:31:04;;;;;;;2.60;2.50;;;20.90;99.90;;;21.24;74.12;101486.56;5037607;28;20132;-69
2023/09/13 06:33:33;;;;;;;2.38;2.28;;;21.00;99.90;;;21.29;73.08;101496.22;5047650;28;20041;-69
2023/09/13 06:36:06;;;;;;;2.45;2.35;;;21.10;99.90;;;21.42;72.21;101492.13;5045131;28;20041;-69
2023/09/13 06:38:37;;;;;;;2.30;2.20;;;21.20;99.90;;;21.70;71.16;101501.81;5038343;28;20125;-70
2023/09/13 06:41:06;;;;;;;7.38;3.92;;;21.50;99.90;;;21.94;70.48;101507.09;5050221;28;20050;-69
2023/09/13 06:43:36;;;;;;;2.60;2.50;;;21.70;99.90;;;22.00;69.59;101498.78;5041288;28;20534;-69
2023/09/13 06:46:05;;;;;;;;;;;21.80;99.90;;;22.10;68.60;101500.16;5042334;28;20046;-70
2023/09/13 06:48:37;;;;;;;2.35;2.25;;;21.90;99.90;;;22.05;67.90;101499.44;5049946;28;20011;-70
2023/09/13 06:51:07;;;;;;;3.05;2.95;;;21.90;99.90;;;22.14;68.29;101507.13;5038947;28;20040;-69
2023/09/13 06:53:40;;;;;;;2.40;2.30;;;21.90;99.90;;;22.36;67.11;101515.19;5044765;28;20091;-69
2023/09/13 06:56:09;;;;;;;2.60;2.50;;;22.10;99.90;;;22.57;66.72;101535.03;5046523;28;20449;-69
2023/09/13 06:58:41;;;;;;;2.58;2.47;;;22.30;99.90;;;22.80;65.48;101529.50;5051018;28;20067;-69
2023/09/13 07:01:11;;;;;;;2.25;2.15;;;22.50;99.90;;;22.55;64.85;101528.78;5040518;28;20122;-70
2023/09/13 07:03:42;;;;;;;2.70;2.60;;;22.40;99.90;;;22.83;64.70;101540.16;5042627;28;20042;-69
2023/09/13 07:06:20;;;;;;;2.67;2.58;;;22.60;99.90;;;22.73;64.42;101539.69;5049166;28;20055;-69
2023/09/13 07:08:51;;;;;;;2.63;2.53;;;22.60;99.90;;;22.82;63.75;101555.44;5048886;28;20388;-69
2023/09/13 07:11:19;;;;;;;3.03;2.70;;;22.60;99.90;;;22.75;64.00;101550.41;5042414;28;20112;-70
2023/09/13 07:13:47;;;;;;;2.20;2.10;;;22.60;99.90;;;22.64;64.09;101558.09;5040091;28;20041;-70
2023/09/13 07:16:16;;;;;;;2.25;2.15;;;22.40;99.90;;;22.73;63.31;101561.25;5049863;28;20451;-69
2023/09/13 07:18:44;;;;;;;2.28;2.17;;;22.60;99.90;;;22.59;64.09;101568.22;5038327;28;20151;-69
2023/09/13 07:21:13;;;;;;;2.40;2.30;;;22.40;99.90;;;22.50;64.06;101563.16;5043135;28;20513;-70
2023/09/13 07:23:42;;;;;;;2.60;2.50;;;22.30;99.90;;;22.37;64.53;101554.72;5045647;28;20048;-70
2023/09/13 07:26:12;;;;;;;3.15;2.63;;;22.20;99.90;;;22.20;64.17;101547.31;5036015;28;20120;-70
2023/09/13 07:28:41;;;;;;;4.97;2.22;;;22.10;99.90;;;21.80;65.04;101552.56;5046762;28;20041;-70
2023/09/13 07:31:10;;;;;;;2.47;2.38;;;21.70;99.90;;;21.68;66.10;101563.78;5042665;28;20546;-70
2023/09/13 07:33:39;;;;;;;2.38;2.28;;;21.50;99.90;;;21.17;67.76;101563.97;5038532;28;20055;-70
2023/09/13 07:36:08;;;;;;;2.42;2.33;;;21.00;99.90;;;21.18;69.04;101563.03;5049153;28;20041;-70
2023/09/13 07:38:37;;;;;;;2.53;2.42;;;20.90;99.90;;;21.29;68.69;101570.72;5039300;28;20041;-70
2023/09/13 07:41:06;;;;;;;2.40;2.30;;;21.00;99.90;;;21.58;68.71;101600.13;5042132;28;20506;-70
2023/09/13 07:43:36;;;;;;;2.60;2.50;;;21.30;99.90;;;21.90;68.38;101625.81;5047671;28;20048;-69
2023/09/13 07:46:05;;;;;;;2.33;2.22;;;21.60;99.90;;;22.19;67.89;101618.34;5036328;28;20049;-70
2023/09/13 07:48:34;;;;;;;2.20;2.10;;;21.90;99.90;;;22.37;67.07;101631.09;5048312;28;20399;-70
2023/09/13 07:51:02;;;;;;;2.78;2.67;;;22.10;99.90;;;22.49;66.26;101637.81;5044454;28;20120;-70
2023/09/13 07:53:31;;;;;;;2.28;2.17;;;22.30;99.90;;;22.70;66.51;101633.38;5036903;28;20053;-70
2023/09/13 07:55:59;;;;;;;2.33;2.22;;;22.50;99.90;;;22.78;66.08;101631.22;5049341;28;20042;-70
2023/09/13 07:58:28;;;;;;;2.20;2.10;;;22.60;99.90;;;22.87;65.28;101641.63;5040626;28;20049;-70
2023/09/13 08:00:58;;;;;;;2.60;2.50;;;22.60;99.90;;;22.92;64.88;101644.97;5051150;28;20049;-70
2023/09/13 08:03:27;;;;;;;2.38;2.28;;;22.70;99.90;;;22.70;64.00;101646.84;5052786;28;20080;-70
2023/09/13 08:05:57;;;;;;;2.10;2.00;;;22.50;99.90;;;22.73;64.54;101644.91;5037589;28;20045;-71
2023/09/13 08:08:25;;;;;;;2.13;2.03;;;22.50;99.90;;;22.88;64.67;101638.84;5044048;28;20042;-70
2023/09/13 08:10:54;;;;;;;2.03;1.92;;;22.60;99.90;;;22.97;64.16;101648.38;5044224;28;20048;-70
2023/09/13 08:13:22;;;;;;;1.92;1.83;;;22.70;99.90;;;23.18;64.40;101648.31;5051646;28;20102;-70
2023/09/13 08:15:51;;;;;;;1.90;1.80;;;22.90;99.90;;;23.39;64.25;101653.72;5036143;28;20072;-70
2023/09/13 08:18:21;;;;;;;2.20;2.10;;;23.10;99.90;;;23.49;62.76;101658.66;5052138;28;20044;-70
2023/09/13 08:20:50;;;;;;;2.10;2.00;;;23.30;99.90;;;23.75;62.02;101669.16;5038908;28;20042;-70
2023/09/13 08:23:18;;;;;;;2.17;2.08;;;23.50;99.90;;;24.12;61.36;101671.94;5047934;28;20513;-70
2023/09/13 08:25:46;;;;;;;2.17;2.08;;;23.90;99.90;;;24.37;60.20;101674.31;5036927;28;20076;-70
2023/09/13 08:28:16;;;;;;;2.03;1.92;;;24.10;99.90;;;24.60;59.79;101675.94;5046927;28;20046;-71
2023/09/13 08:30:45;;;;;;;2.00;1.90;;;24.40;99.90;;;24.76;58.46;101693.16;5045376;28;20068;-71
2023/09/13 08:33:15;;;;;;;1.60;1.60;;;24.50;99.90;;;24.83;57.47;101697.34;5035395;28;20132;-70
2023/09/13 08:35:47;;;;;;;1.70;1.70;;;24.60;99.90;;;24.88;57.30;101714.22;5045093;28;20304;-70
2023/09/13 08:38:15;;;;;;;1.95;1.85;;;24.70;99.90;;;24.98;57.24;101705.56;5041455;28;20049;-70
2023/09/13 08:40:47;;;;;;;1.98;1.88;;;24.80;99.90;;;25.04;56.92;101712.50;5052166;28;20057;-70
2023/09/13 08:43:16;;;;;;;2.20;2.10;;;24.80;99.90;;;25.08;56.31;101729.47;5035615;28;20041;-70
2023/09/13 08:45:50;;;;;;;1.70;1.70;;;24.80;99.90;;;25.17;56.67;101729.88;5043678;28;20046;-70
2023/09/13 08:48:19;;;;;;;2.72;2.63;;;24.90;99.90;;;25.32;56.49;101733.63;5044117;28;20044;-71
2023/09/13 08:50:49;;;;;;;1.50;1.50;;;25.00;99.90;;;25.47;56.07;101738.28;5034249;28;20054;-70
2023/09/13 08:53:18;;;;;;;1.48;1.48;;;25.20;99.90;;;25.47;55.10;101744.59;5047320;28;20076;-70
2023/09/13 08:55:47;;;;;;;1.60;1.60;;;25.30;99.90;;;25.48;55.30;101756.28;5040576;28;20041;-71
2023/09/13 08:58:15;;;;;;;2.05;1.95;;;25.20;99.90;;;25.52;54.60;101750.63;5039034;28;20053;-70
2023/09/13 09:00:49;;;;;;;1.58;1.58;;;25.30;99.90;;;25.52;55.17;101774.13;5048042;28;20056;-71
2023/09/13 09:03:22;;;;;;;2.20;2.10;;;25.30;99.90;;;25.51;54.71;101753.44;5037650;28;20049;-71
2023/09/13 09:05:52;;;;;;;1.63;1.63;;;25.30;99.90;;;25.53;54.90;101765.06;5041214;28;20049;-70
2023/09/13 09:08:21;;;;;;;;;;;25.30;99.90;;;25.40;55.12;101772.06;5046113;28;20057;-70
2023/09/13 09:10:56;;;;;;;1.70;1.70;;;25.10;99.90;;;25.43;55.32;101771.91;5047668;28;20008;-70
2023/09/13 09:13:26;;;;;;;2.05;1.95;;;25.10;99.90;;;25.32;55.09;101772.41;5055414;28;20052;-71
2023/09/13 09:15:57;;;;;;;2.03;1.92;;;25.00;99.90;;;25.34;54.79;101780.50;5052000;28;20037;-71
2023/09/13 09:18:29;;;;;;;1.90;1.83;;;25.00;99.90;;;25.28;55.02;101767.25;5034348;28;20064;-69
2023/09/13 09:20:59;;;;;;;1.60;1.60;;;25.00;99.90;;;25.35;55.11;101766.88;5046994;28;20068;-70
2023/09/13 09:23:29;;;;;;;1.65;1.65;;;25.10;99.90;;;25.29;54.66;101766.28;5041436;28;20049;-70
2023/09/13 09:25:59;;;;;;;1.80;1.80;;;25.00;99.90;;;25.41;55.06;101774.72;5037588;28;20495;-71
2023/09/13 09:28:28;;;;;;;1.70;1.70;;;25.10;99.90;;;25.51;54.54;101784.09;5047387;28;20065;-71
2023/09/13 09:30:56;;;;;;;1.85;1.83;;;25.20;99.90;;;25.32;53.90;101775.13;5038049;28;20099;-71
2023/09/13 09:33:30;;;;;;;1.60;1.60;;;25.20;99.90;;;25.33;54.05;101776.00;5040853;28;20057;-71
2023/09/13 09:36:03;;;;;;;1.63;1.63;;;25.20;99.90;;;25.35;54.54;101783.13;5046940;28;20045;-72
2023/09/13 09:38:32;;;;;;;2.20;2.10;;;25.10;99.90;;;25.39;54.94;101789.25;5035483;28;20045;-71
2023/09/13 09:41:03;;;;;;;1.70;1.70;;;25.20;99.90;;;25.54;54.46;101796.63;5043737;28;20041;-70
2023/09/13 09:43:32;;;;;;;1.73;1.73;;;25.30;99.90;;;25.68;53.65;101796.78;5045086;28;20075;-70
2023/09/13 09:46:01;;;;;;;2.30;2.20;;;25.50;99.90;;;25.68;52.73;101792.25;5049212;28;20435;-71
2023/09/13 09:48:29;;;;;;;1.90;1.80;;;25.50;99.90;;;25.65;53.34;101797.81;5050239;28;20199;-70
2023/09/13 09:50:59;;;;;;;1.70;1.70;;;25.50;99.90;;;25.62;53.39;101797.09;5044072;28;20049;-70
2023/09/13 09:53:29;;;;;;;1.70;1.70;;;25.40;99.90;;;25.74;53.12;101796.47;5042190;28;20104;-70
2023/09/13 09:55:57;;;;;;;1.70;1.70;;;25.50;99.90;;;26.00;53.55;101809.50;5051011;28;20478;-70
2023/09/13 09:58:26;;;;;;;1.65;1.65;;;25.70;99.90;;;25.98;52.51;101810.59;5039488;28;20098;-70
2023/09/13 10:00:55;;;;;;;1.50;1.50;;;25.80;99.90;;;25.93;52.34;101797.25;5055148;28;20076;-70
2023/09/13 10:03:23;;;;;;;1.63;1.63;;;25.80;99.90;;;25.96;52.34;101813.34;5041835;28;20117;-70
2023/09/13 10:06:03;;;;;;;1.60;1.60;;;25.70;99.90;;;26.05;52.93;101836.41;5051016;28;20128;-71
2023/09/13 10:08:41;;;;;;;1.30;1.30;;;25.80;99.90;;;25.97;52.66;101827.78;5042724;28;20057;-70
2023/09/13 10:11:16;;;;;;;1.40;1.40;;;25.70;99.90;;;25.88;52.08;101826.44;5041356;28;20609;-70
2023/09/13 10:13:46;;;;;;;1.67;1.67;;;25.60;99.90;;;25.86;52.52;101826.50;5051018;28;20051;-70
2023/09/13 10:16:16;;;;;;;1.63;1.63;;;25.60;99.90;;;25.93;52.64;101829.78;5040666;28;20102;-70
2023/09/13 10:18:48;;;;;;;1.58;1.58;;;25.70;99.90;;;25.98;52.76;101830.41;5044377;28;20045;-70
2023/09/13 10:21:21;;;;;;;1.52;1.52;;;25.70;99.90;;;25.86;52.68;101829.22;5050215;28;20057;-70
2023/09/13 10:23:57;;;;;;;1.55;1.55;;;25.60;99.90;;;25.99;52.85;101832.19;5038270;28;20052;-70
2023/09/13 10:26:26;;;;;;;1.60;1.60;;;25.70;99.90;;;26.26;51.63;101829.84;5045583;28;20052;-70